createdAt,value
2022-09-01T00:00:29.326Z,97258.16
2022-09-01T00:02:57.807Z,97268.38
2022-09-01T00:05:26.134Z,97258.53
2022-09-01T00:07:54.520Z,97253.16
2022-09-01T00:10:22.968Z,97242.72
2022-09-01T00:12:51.876Z,97245.63
2022-09-01T00:15:20.316Z,97241.38
2022-09-01T00:17:49.470Z,97230.75
2022-09-01T00:20:20.445Z,97230.22
2022-09-01T00:22:49.707Z,97228.69
2022-09-01T00:25:20.570Z,97218.53
2022-09-01T00:27:49.518Z,97224.53
2022-09-01T00:30:18.696Z,97235.56
2022-09-01T00:32:47.849Z,97239.69
2022-09-01T00:35:18.662Z,97233.94
2022-09-01T00:37:47.033Z,97237.94
2022-09-01T00:40:17.251Z,97231.31
2022-09-01T00:42:45.874Z,97238.13
2022-09-01T00:45:14.201Z,97243.44
2022-09-01T00:47:42.931Z,97240.78
2022-09-01T00:50:12.276Z,97254.97
2022-09-01T00:52:46.925Z,97243.22
2022-09-01T00:55:21.938Z,97247.91
2022-09-01T00:57:50.222Z,97241.44
2022-09-01T01:00:23.759Z,97244.00
2022-09-01T01:02:56.835Z,97230.94
2022-09-01T01:05:34.017Z,97233.56
2022-09-01T01:08:02.855Z,97232.56
2022-09-01T01:10:33.154Z,97236.69
2022-09-01T01:13:04.978Z,97235.38
2022-09-01T01:15:33.308Z,97239.84
2022-09-01T01:18:01.838Z,97237.22
2022-09-01T01:20:48.703Z,97238.53
2022-09-01T01:23:22.014Z,97236.22
2022-09-01T01:25:57.232Z,97237.78
2022-09-01T01:28:36.315Z,97245.31
2022-09-01T01:31:12.918Z,97235.69
2022-09-01T01:33:44.848Z,97239.84
2022-09-01T01:36:19.576Z,97248.72
2022-09-01T01:38:49.020Z,97249.50
2022-09-01T01:41:20.115Z,97248.25
2022-09-01T01:43:48.620Z,97239.06
2022-09-01T01:46:20.733Z,97249.03
2022-09-01T01:48:52.677Z,97244.63
2022-09-01T01:51:25.266Z,97241.47
2022-09-01T01:53:53.963Z,97251.41
2022-09-01T01:56:25.952Z,97243.56
2022-09-01T01:58:55.737Z,97243.03
2022-09-01T02:01:29.003Z,97242.56
2022-09-01T02:03:59.183Z,97244.09
2022-09-01T02:06:29.620Z,97248.25
2022-09-01T02:09:01.835Z,97257.63
2022-09-01T02:11:33.926Z,97248.19
2022-09-01T02:14:03.205Z,97256.09
2022-09-01T02:16:33.103Z,97259.47
2022-09-01T02:19:04.801Z,97255.84
2022-09-01T02:21:34.078Z,97261.38
2022-09-01T02:24:05.141Z,97258.25
2022-09-01T02:26:38.911Z,97253.53
2022-09-01T02:29:18.223Z,97252.22
2022-09-01T02:31:48.851Z,97248.31
2022-09-01T02:34:17.424Z,97251.97
2022-09-01T02:36:50.496Z,97257.13
2022-09-01T02:39:34.796Z,97248.25
2022-09-01T02:42:03.762Z,97248.25
2022-09-01T02:44:36.276Z,97245.66
2022-09-01T02:47:10.163Z,97247.25
2022-09-01T02:49:39.054Z,97253.00
2022-09-01T02:52:08.225Z,97252.75
2022-09-01T02:54:36.776Z,97251.69
2022-09-01T02:57:05.283Z,97242.00
2022-09-01T02:59:35.108Z,97248.81
2022-09-01T03:02:04.640Z,97248.31
2022-09-01T03:04:35.939Z,97244.13
2022-09-01T03:07:05.419Z,97244.16
2022-09-01T03:09:35.344Z,97244.16
2022-09-01T03:12:04.230Z,97246.25
2022-09-01T03:14:33.031Z,97249.38
2022-09-01T03:17:01.628Z,97249.31
2022-09-01T03:19:35.586Z,97254.06
2022-09-01T03:22:04.711Z,97239.47
2022-09-01T03:24:34.144Z,97249.38
2022-09-01T03:27:02.619Z,97257.22
2022-09-01T03:29:31.456Z,97255.09
2022-09-01T03:32:00.159Z,97252.47
2022-09-01T03:34:29.233Z,97249.38
2022-09-01T03:36:58.441Z,97247.31
2022-09-01T03:39:28.441Z,97246.53
2022-09-01T03:41:58.360Z,97250.44
2022-09-01T03:44:27.462Z,97252.25
2022-09-01T03:46:55.751Z,97243.38
2022-09-01T03:49:28.149Z,97252.53
2022-09-01T03:51:58.978Z,97236.84
2022-09-01T03:54:30.641Z,97244.97
2022-09-01T03:57:00.970Z,97244.22
2022-09-01T03:59:30.688Z,97236.38
2022-09-01T04:02:00.684Z,97247.84
2022-09-01T04:04:33.226Z,97241.47
2022-09-01T04:07:02.125Z,97247.81
2022-09-01T04:09:35.198Z,97251.75
2022-09-01T04:12:09.254Z,97249.44
2022-09-01T04:14:40.930Z,97260.16
2022-09-01T04:17:30.465Z,97249.44
2022-09-01T04:19:59.525Z,97260.16
2022-09-01T04:22:30.440Z,97258.03
2022-09-01T04:25:00.659Z,97260.88
2022-09-01T04:27:29.408Z,97264.06
2022-09-01T04:29:58.096Z,97260.91
2022-09-01T04:32:29.788Z,97254.66
2022-09-01T04:35:02.395Z,97252.31
2022-09-01T04:37:31.441Z,97251.28
2022-09-01T04:40:05.406Z,97253.88
2022-09-01T04:42:34.440Z,97255.19
2022-09-01T04:45:10.019Z,97252.03
2022-09-01T04:47:42.486Z,97255.72
2022-09-01T04:50:17.953Z,97259.59
2022-09-01T04:53:07.077Z,97250.53
2022-09-01T04:55:55.521Z,97248.94
2022-09-01T04:58:27.194Z,97250.50
2022-09-01T05:00:56.225Z,97243.72
2022-09-01T05:03:26.141Z,97245.53
2022-09-01T05:06:18.066Z,97253.25
2022-09-01T05:08:53.831Z,97258.03
2022-09-01T05:11:48.993Z,97251.03
2022-09-01T05:14:23.323Z,97251.03
2022-09-01T05:16:59.630Z,97246.81
2022-09-01T05:19:30.108Z,97253.72
2022-09-01T05:22:01.098Z,97256.66
2022-09-01T05:24:32.481Z,97263.50
2022-09-01T05:27:07.884Z,97256.72
2022-09-01T05:29:38.635Z,97265.31
2022-09-01T05:32:10.698Z,97259.75
2022-09-01T05:34:40.055Z,97263.47
2022-09-01T05:37:09.144Z,97262.94
2022-09-01T05:39:39.609Z,97259.03
2022-09-01T05:42:11.201Z,97261.25
2022-09-01T05:44:44.536Z,97258.16
2022-09-01T05:47:20.625Z,97261.38
2022-09-01T05:49:53.937Z,97259.81
2022-09-01T05:52:26.613Z,97256.13
2022-09-01T05:54:57.198Z,97261.13
2022-09-01T05:57:35.244Z,97263.50
2022-09-01T06:00:12.711Z,97260.59
2022-09-01T06:02:43.270Z,97253.53
2022-09-01T06:05:17.672Z,97255.38
2022-09-01T06:07:47.985Z,97256.19
2022-09-01T06:10:18.275Z,97266.63
2022-09-01T06:12:48.858Z,97262.41
2022-09-01T06:15:18.951Z,97267.66
2022-09-01T06:17:52.679Z,97257.16
2022-09-01T06:20:23.284Z,97255.63
2022-09-01T06:22:52.921Z,97256.69
2022-09-01T06:25:22.013Z,97255.13
2022-09-01T06:27:52.693Z,97253.81
2022-09-01T06:30:26.792Z,97254.25
2022-09-01T06:33:09.571Z,97248.84
2022-09-01T06:35:42.395Z,97255.06
2022-09-01T06:38:12.337Z,97261.88
2022-09-01T06:40:46.548Z,97256.41
2022-09-01T06:43:17.562Z,97251.94
2022-09-01T06:45:55.397Z,97256.38
2022-09-01T06:48:25.309Z,97259.56
2022-09-01T06:51:21.241Z,97265.22
2022-09-01T06:53:57.251Z,97256.63
2022-09-01T06:56:32.230Z,97261.31
2022-09-01T06:59:06.354Z,97257.69
2022-09-01T07:01:39.250Z,97259.47
2022-09-01T07:04:12.855Z,97256.63
2022-09-01T07:07:01.488Z,97257.16
2022-09-01T07:09:49.797Z,97253.53
2022-09-01T07:12:39.332Z,97250.81
2022-09-01T07:17:58.521Z,97261.50
2022-09-01T07:21:02.869Z,97246.31
2022-09-01T07:23:46.307Z,97242.38
2022-09-01T07:26:26.904Z,97243.00
2022-09-01T07:29:06.334Z,97241.16
2022-09-01T07:34:46.137Z,97238.28
2022-09-01T07:43:23.372Z,97236.88
2022-09-01T07:49:29.654Z,97237.47
2022-09-01T07:51:50.812Z,97239.66
2022-09-01T07:54:25.561Z,97239.09
2022-09-01T07:56:55.841Z,97235.91
2022-09-01T07:59:30.270Z,97235.88
2022-09-01T08:02:05.888Z,97238.59
2022-09-01T08:04:35.353Z,97244.06
2022-09-01T08:07:05.999Z,97243.78
2022-09-01T08:09:43.773Z,97247.75
2022-09-01T08:12:14.232Z,97247.69
2022-09-01T08:17:58.051Z,97242.97
2022-09-01T08:20:31.902Z,97241.97
2022-09-01T08:23:03.656Z,97247.88
2022-09-01T08:25:36.825Z,97242.09
2022-09-01T08:28:06.185Z,97245.66
2022-09-01T08:30:35.930Z,97244.19
2022-09-01T08:33:12.452Z,97242.50
2022-09-01T08:35:48.488Z,97235.81
2022-09-01T08:38:17.768Z,97237.56
2022-09-01T08:40:56.863Z,97232.63
2022-09-01T08:43:49.736Z,97236.63
2022-09-01T08:46:25.670Z,97240.00
2022-09-01T08:52:32.355Z,97228.53
2022-09-01T08:55:13.215Z,97219.09
2022-09-01T08:57:44.390Z,97218.66
2022-09-01T09:00:42.304Z,97218.19
2022-09-01T09:03:47.427Z,97217.47
2022-09-01T09:06:22.223Z,97213.22
2022-09-01T09:09:04.255Z,97226.31
2022-09-01T09:11:32.735Z,97214.88
2022-09-01T09:14:20.378Z,97211.06
2022-09-01T09:16:51.456Z,97208.78
2022-09-01T09:19:29.622Z,97208.78
2022-09-01T09:22:00.993Z,97210.38
2022-09-01T09:24:50.981Z,97203.19
2022-09-01T09:27:28.247Z,97193.00
2022-09-01T09:30:09.202Z,97184.06
2022-09-01T09:35:57.741Z,97182.88
2022-09-01T09:38:33.904Z,97173.66
2022-09-01T09:41:17.958Z,97168.44
2022-09-01T09:44:04.005Z,97162.13
2022-09-01T09:46:33.079Z,97164.06
2022-09-01T09:49:34.824Z,97157.31
2022-09-01T09:52:21.445Z,97159.22
2022-09-01T09:55:08.691Z,97163.03
2022-09-01T09:57:39.936Z,97148.97
2022-09-01T10:00:24.013Z,97147.44
2022-09-01T10:02:58.204Z,97140.50
2022-09-01T10:05:43.386Z,97136.19
2022-09-01T10:08:27.293Z,97134.47
2022-09-01T10:10:58.378Z,97132.25
2022-09-01T10:13:33.146Z,97134.69
2022-09-01T10:16:09.358Z,97131.22
2022-09-01T10:18:41.593Z,97128.69
2022-09-01T10:21:19.592Z,97135.25
2022-09-01T10:23:49.608Z,97131.38
2022-09-01T10:26:34.205Z,97132.91
2022-09-01T10:29:07.365Z,97122.91
2022-09-01T10:31:40.957Z,97124.19
2022-09-01T10:34:13.671Z,97119.88
2022-09-01T10:36:47.091Z,97112.31
2022-09-01T10:39:22.211Z,97108.75
2022-09-01T10:42:07.965Z,97118.38
2022-09-01T10:44:56.249Z,97119.22
2022-09-01T10:47:30.471Z,97112.91
2022-09-01T10:50:07.666Z,97101.28
2022-09-01T10:52:43.125Z,97101.72
2022-09-01T10:55:33.001Z,97098.81
2022-09-01T10:59:31.137Z,97103.44
2022-09-01T11:04:00.773Z,97090.31
2022-09-01T11:06:42.941Z,97088.31
2022-09-01T11:09:24.785Z,97087.38
2022-09-01T11:12:03.383Z,97075.88
2022-09-01T11:14:36.147Z,97084.22
2022-09-01T11:17:20.350Z,97086.91
2022-09-01T11:20:09.713Z,97077.09
2022-09-01T11:22:46.039Z,97083.16
2022-09-01T11:25:41.297Z,97085.50
2022-09-01T11:28:17.984Z,97079.00
2022-09-01T11:30:56.942Z,97079.00
2022-09-01T11:33:29.757Z,97072.19
2022-09-01T11:36:01.961Z,97069.84
2022-09-01T11:38:51.619Z,97070.94
2022-09-01T11:41:32.337Z,97071.72
2022-09-01T11:44:03.005Z,97070.47
2022-09-01T11:46:35.050Z,97066.16
2022-09-01T11:49:08.501Z,97055.44
2022-09-01T11:51:46.385Z,97062.41
2022-09-01T11:54:14.936Z,97057.00
2022-09-01T11:56:43.761Z,97059.75
2022-09-01T11:59:12.656Z,97057.75
2022-09-01T12:01:41.435Z,97056.50
2022-09-01T12:04:27.925Z,97055.28
2022-09-01T12:07:11.225Z,97057.59
2022-09-01T12:09:51.817Z,97061.31
2022-09-01T12:12:33.720Z,97063.19
2022-09-01T12:15:27.872Z,97053.72
2022-09-01T12:18:19.707Z,97043.00
2022-09-01T12:20:51.707Z,97045.63
2022-09-01T12:23:41.646Z,97041.78
2022-09-01T12:26:15.249Z,97042.56
2022-09-01T12:28:44.213Z,97038.06
2022-09-01T12:31:19.698Z,97053.59
2022-09-01T12:33:48.524Z,97062.69
2022-09-01T12:36:28.793Z,97057.41
2022-09-01T12:38:58.703Z,97063.00
2022-09-01T12:44:44.217Z,97067.47
2022-09-01T12:47:15.556Z,97071.47
2022-09-01T12:49:50.619Z,97077.94
2022-09-01T12:52:28.313Z,97083.44
2022-09-01T12:55:00.187Z,97077.41
2022-09-01T12:57:31.872Z,97081.31
2022-09-01T13:00:09.152Z,97074.84
2022-09-01T13:02:45.365Z,97071.75
2022-09-01T13:05:32.671Z,97070.41
2022-09-01T13:08:11.626Z,97062.88
2022-09-01T13:10:54.278Z,97057.16
2022-09-01T13:13:25.463Z,97052.72
2022-09-01T13:15:56.330Z,97055.25
2022-09-01T13:18:28.341Z,97052.84
2022-09-01T13:20:57.239Z,97059.50
2022-09-01T13:23:25.901Z,97054.97
2022-09-01T13:25:54.366Z,97064.63
2022-09-01T13:36:47.148Z,97055.31
2022-09-01T13:39:18.893Z,97053.22
2022-09-01T13:41:48.433Z,97049.50
2022-09-01T13:44:17.420Z,97050.66
2022-09-01T13:49:43.477Z,97057.19
2022-09-01T13:52:13.405Z,97057.97
2022-09-01T13:54:44.627Z,97054.75
2022-09-01T13:57:15.754Z,97064.06
2022-09-01T13:59:44.657Z,97050.09
2022-09-01T14:02:14.236Z,97049.91
2022-09-01T14:04:42.668Z,97055.47
2022-09-01T14:07:10.957Z,97056.84
2022-09-01T14:09:39.200Z,97056.72
2022-09-01T14:12:07.729Z,97057.78
2022-09-01T14:17:24.367Z,97065.38
2022-09-01T14:19:54.016Z,97069.56
2022-09-01T14:22:22.410Z,97058.22
2022-09-01T14:24:51.177Z,97047.25
2022-09-01T14:27:20.431Z,97051.09
2022-09-01T14:29:54.645Z,97048.31
2022-09-01T14:32:27.220Z,97044.00
2022-09-01T14:34:56.150Z,97049.44
2022-09-01T14:37:26.148Z,97049.94
2022-09-01T14:39:55.585Z,97050.44
2022-09-01T14:42:25.942Z,97054.00
2022-09-01T14:44:54.369Z,97051.50
2022-09-01T14:47:25.022Z,97066.94
2022-09-01T14:49:53.882Z,97054.31
2022-09-01T14:52:22.311Z,97053.06
2022-09-01T14:54:51.428Z,97052.47
2022-09-01T14:57:29.377Z,97044.72
2022-09-01T15:00:00.232Z,97057.53
2022-09-01T15:02:29.432Z,97048.72
2022-09-01T15:04:58.280Z,97062.94
2022-09-01T15:07:27.992Z,97061.22
2022-09-01T15:09:58.025Z,97064.28
2022-09-01T15:12:31.198Z,97058.03
2022-09-01T15:15:02.270Z,97049.25
2022-09-01T15:17:30.662Z,97056.50
2022-09-01T15:20:21.752Z,97053.53
2022-09-01T15:22:50.880Z,97052.72
2022-09-01T15:25:20.482Z,97061.66
2022-09-01T15:27:48.967Z,97059.00
2022-09-01T15:30:18.468Z,97059.00
2022-09-01T15:32:48.727Z,97054.25
2022-09-01T15:35:17.406Z,97049.72
2022-09-01T15:37:49.651Z,97049.69
2022-09-01T15:40:18.648Z,97053.22
2022-09-01T15:42:47.162Z,97042.94
2022-09-01T15:45:17.906Z,97040.19
2022-09-01T15:47:48.631Z,97051.50
2022-09-01T15:50:22.775Z,97041.34
2022-09-01T15:52:59.002Z,97046.16
2022-09-01T15:55:32.249Z,97044.84
2022-09-01T15:58:00.802Z,97053.81
2022-09-01T16:00:30.125Z,97052.75
2022-09-01T16:03:02.280Z,97055.38
2022-09-01T16:05:31.572Z,97053.81
2022-09-01T16:08:01.722Z,97057.66
2022-09-01T16:10:33.509Z,97057.66
2022-09-01T16:13:03.703Z,97055.63
2022-09-01T16:15:35.682Z,97063.78
2022-09-01T16:18:18.139Z,97050.22
2022-09-01T16:21:05.696Z,97050.22
2022-09-01T16:23:44.716Z,97059.78
2022-09-01T16:26:13.182Z,97066.09
2022-09-01T16:28:42.971Z,97062.69
2022-09-01T16:31:14.016Z,97069.03
2022-09-01T16:33:48.469Z,97074.38
2022-09-01T16:36:19.671Z,97070.50
2022-09-01T16:38:54.155Z,97069.06
2022-09-01T16:41:28.830Z,97076.00
2022-09-01T16:44:08.963Z,97085.91
2022-09-01T16:46:50.768Z,97083.28
2022-09-01T16:50:06.265Z,97084.81
2022-09-01T16:53:04.347Z,97090.81
2022-09-01T16:55:59.281Z,97088.19
2022-09-01T16:58:41.285Z,97108.34
2022-09-01T17:01:34.518Z,97102.59
2022-09-01T17:04:26.692Z,97110.97
2022-09-01T17:07:00.018Z,97110.47
2022-09-01T17:09:51.742Z,97111.81
2022-09-01T17:12:42.607Z,97106.41
2022-09-01T17:15:19.433Z,97103.88
2022-09-01T17:18:22.473Z,97105.03
2022-09-01T17:21:02.498Z,97108.63
2022-09-01T17:23:39.121Z,97098.28
2022-09-01T17:26:18.447Z,97108.34
2022-09-01T17:29:14.869Z,97102.09
2022-09-01T17:32:08.315Z,97106.22
2022-09-01T17:35:05.993Z,97107.53
2022-09-01T17:37:49.487Z,97107.94
2022-09-01T17:40:23.788Z,97107.47
2022-09-01T17:43:19.625Z,97107.34
2022-09-01T17:46:07.340Z,97118.44
2022-09-01T17:48:59.711Z,97113.97
2022-09-01T17:52:27.537Z,97112.06
2022-09-01T17:55:18.815Z,97118.25
2022-09-01T17:57:47.852Z,97120.41
2022-09-01T18:00:31.881Z,97106.97
2022-09-01T18:03:22.979Z,97105.25
2022-09-01T18:06:14.549Z,97114.66
2022-09-01T18:08:48.837Z,97115.91
2022-09-01T18:12:00.213Z,97115.53
2022-09-01T18:14:39.895Z,97117.97
2022-09-01T18:17:41.754Z,97120.38
2022-09-01T18:20:20.310Z,97127.41
2022-09-01T18:25:57.798Z,97141.56
2022-09-01T18:28:29.796Z,97132.81
2022-09-01T18:31:06.660Z,97138.06
2022-09-01T18:34:12.582Z,97128.94
2022-09-01T18:36:57.967Z,97133.69
2022-09-01T18:39:50.595Z,97135.13
2022-09-01T18:42:56.669Z,97140.38
2022-09-01T18:48:33.976Z,97139.13
2022-09-01T18:51:39.720Z,97140.94
2022-09-01T18:54:20.555Z,97149.31
2022-09-01T18:57:09.468Z,97148.16
2022-09-01T19:00:05.994Z,97152.13
2022-09-01T19:02:42.836Z,97143.56
2022-09-01T19:05:49.695Z,97144.22
2022-09-01T19:08:44.684Z,97148.47
2022-09-01T19:11:50.437Z,97155.69
2022-09-01T19:15:06.470Z,97155.50
2022-09-01T19:18:01.973Z,97156.97
2022-09-01T19:21:17.380Z,97161.00
2022-09-01T19:24:00.663Z,97161.50
2022-09-01T19:27:13.448Z,97156.84
2022-09-01T19:29:54.391Z,97167.72
2022-09-01T19:32:26.974Z,97167.19
2022-09-01T19:35:13.305Z,97169.72
2022-09-01T19:37:52.120Z,97165.19
2022-09-01T19:40:37.805Z,97157.50
2022-09-01T19:43:09.822Z,97153.13
2022-09-01T19:46:18.363Z,97153.56
2022-09-01T19:49:38.208Z,97151.56
2022-09-01T19:52:21.911Z,97164.75
2022-09-01T19:55:02.889Z,97156.97
2022-09-01T19:57:38.202Z,97167.56
2022-09-01T20:00:19.218Z,97173.31
2022-09-01T20:03:14.596Z,97179.28
2022-09-01T20:07:09.154Z,97179.78
2022-09-01T20:09:55.412Z,97183.59
2022-09-01T20:13:09.187Z,97177.38
2022-09-01T20:16:09.450Z,97173.00
2022-09-01T20:19:13.922Z,97177.25
2022-09-01T20:21:46.655Z,97174.44
2022-09-01T20:24:40.252Z,97179.31
2022-09-01T20:27:35.924Z,97171.66
2022-09-01T20:30:09.234Z,97181.22
2022-09-01T20:32:52.022Z,97180.06
2022-09-01T20:35:45.341Z,97182.00
2022-09-01T20:38:57.171Z,97189.50
2022-09-01T20:41:30.220Z,97183.19
2022-09-01T20:44:05.484Z,97187.13
2022-09-01T20:46:33.927Z,97183.69
2022-09-01T20:49:02.929Z,97196.66
2022-09-01T20:51:45.475Z,97195.47
2022-09-01T20:54:20.657Z,97197.56
2022-09-01T20:57:23.892Z,97201.94
2022-09-01T20:59:59.637Z,97198.56
2022-09-01T21:02:49.421Z,97206.25
2022-09-01T21:05:34.070Z,97206.41
2022-09-01T21:08:26.135Z,97203.09
2022-09-01T21:11:14.338Z,97206.00
2022-09-01T21:13:49.924Z,97209.72
2022-09-01T21:16:57.450Z,97211.28
2022-09-01T21:20:01.414Z,97208.09
2022-09-01T21:22:30.187Z,97211.28
2022-09-01T21:24:58.555Z,97217.50
2022-09-01T21:27:29.165Z,97211.38
2022-09-01T21:30:04.292Z,97211.97
2022-09-01T21:32:33.999Z,97211.38
2022-09-01T21:35:03.279Z,97214.97
2022-09-01T21:37:31.900Z,97216.09
2022-09-01T21:40:00.207Z,97220.97
2022-09-01T21:42:36.419Z,97227.91
2022-09-01T21:45:06.852Z,97226.69
2022-09-01T21:47:35.262Z,97214.34
2022-09-01T21:50:03.859Z,97209.16
2022-09-01T21:52:32.712Z,97198.97
2022-09-01T21:55:00.997Z,97203.84
2022-09-01T21:57:29.311Z,97210.78
2022-09-01T21:59:58.347Z,97208.31
2022-09-01T22:02:28.710Z,97201.88
2022-09-01T22:04:57.749Z,97197.31
2022-09-01T22:07:26.287Z,97201.78
2022-09-01T22:09:54.887Z,97202.50
2022-09-01T22:12:23.182Z,97202.72
2022-09-01T22:14:53.836Z,97188.44
2022-09-01T22:17:22.402Z,97187.59
2022-09-01T22:19:51.735Z,97194.59
2022-09-01T22:22:20.080Z,97197.88
2022-09-01T22:24:48.327Z,97189.66
2022-09-01T22:27:16.643Z,97185.88
2022-09-01T22:29:45.590Z,97194.13
2022-09-01T22:32:14.074Z,97197.31
2022-09-01T22:34:43.595Z,97196.13
2022-09-01T22:37:12.322Z,97198.91
2022-09-01T22:39:40.521Z,97190.69
2022-09-01T22:42:08.811Z,97182.06
2022-09-01T22:44:37.132Z,97183.25
2022-09-01T22:47:06.514Z,97183.59
2022-09-01T22:49:34.799Z,97181.66
2022-09-01T22:52:03.752Z,97188.16
2022-09-01T22:54:32.310Z,97194.28
2022-09-01T22:57:02.476Z,97182.69
2022-09-01T22:59:30.955Z,97192.22
2022-09-01T23:02:02.027Z,97185.25
2022-09-01T23:04:32.377Z,97181.25
2022-09-01T23:07:01.308Z,97191.56
2022-09-01T23:09:30.934Z,97192.34
2022-09-01T23:11:59.366Z,97192.97
2022-09-01T23:14:27.970Z,97190.56
2022-09-01T23:16:56.423Z,97185.19
2022-09-01T23:19:25.651Z,97184.06
2022-09-01T23:21:54.547Z,97176.72
2022-09-01T23:24:24.289Z,97180.38
2022-09-01T23:26:52.732Z,97177.66
2022-09-01T23:29:21.187Z,97173.25
2022-09-01T23:31:49.463Z,97161.44
2022-09-01T23:34:17.941Z,97164.25
2022-09-01T23:36:46.317Z,97150.41
2022-09-01T23:39:14.759Z,97154.09
2022-09-01T23:41:43.102Z,97143.09
2022-09-01T23:44:11.573Z,97136.88
2022-09-01T23:46:44.839Z,97136.59
2022-09-01T23:49:14.280Z,97140.06
2022-09-01T23:51:44.240Z,97141.16
2022-09-01T23:54:14.365Z,97142.97
2022-09-01T23:56:42.635Z,97138.59
2022-09-01T23:59:11.045Z,97143.19
